createdAt,value
2023-01-19T15:13:02.098Z,3.10
2023-01-19T15:15:35.047Z,4.22
2023-01-19T15:18:05.215Z,3.55
2023-01-19T15:20:33.192Z,4.60
2023-01-19T15:23:00.791Z,4.62
2023-01-19T15:25:30.472Z,4.55
2023-01-19T15:27:59.438Z,4.18
2023-01-19T15:30:31.052Z,3.65
2023-01-19T15:32:59.555Z,3.92
2023-01-19T15:35:27.412Z,3.28
2023-01-19T15:37:55.530Z,3.00
2023-01-19T15:40:23.545Z,2.78
2023-01-19T15:42:51.269Z,3.10
2023-01-19T15:45:32.105Z,3.03
2023-01-19T15:48:08.576Z,3.53
2023-01-19T15:50:41.896Z,2.80
2023-01-19T15:53:18.335Z,3.50
2023-01-19T15:55:50.345Z,3.30
2023-01-19T15:58:20.744Z,4.07
2023-01-19T16:00:59.031Z,3.50
2023-01-19T16:03:27.138Z,4.10
2023-01-19T16:05:54.916Z,3.95
2023-01-19T16:08:22.598Z,3.97
2023-01-19T16:10:50.584Z,5.28
2023-01-19T16:13:18.264Z,4.65
2023-01-19T16:15:45.855Z,4.90
2023-01-19T16:18:13.881Z,4.65
2023-01-19T16:20:41.504Z,3.70
2023-01-19T16:23:14.839Z,3.45
2023-01-19T16:25:43.550Z,3.37
2023-01-19T16:28:11.551Z,4.55
2023-01-19T16:30:39.349Z,4.30
2023-01-19T16:33:08.532Z,3.90
2023-01-19T16:35:36.262Z,4.70
2023-01-19T16:38:04.152Z,3.80
2023-01-19T16:40:32.227Z,4.37
2023-01-19T16:42:59.847Z,4.55
2023-01-19T16:45:27.510Z,4.12
2023-01-19T16:47:55.549Z,4.28
2023-01-19T16:50:23.147Z,4.53
2023-01-19T16:52:56.163Z,4.43
2023-01-19T16:55:24.285Z,5.07
2023-01-19T16:57:52.641Z,6.50
2023-01-19T17:00:20.871Z,5.30
2023-01-19T17:02:49.197Z,4.65
2023-01-19T17:05:16.843Z,5.22
2023-01-19T17:07:44.644Z,5.82
2023-01-19T17:10:13.141Z,6.62
2023-01-19T17:12:41.105Z,8.90
2023-01-19T17:15:09.487Z,7.80
2023-01-19T17:17:38.050Z,8.25
2023-01-19T17:20:06.505Z,6.78
2023-01-19T17:22:34.189Z,5.47
2023-01-19T17:25:02.174Z,5.00
2023-01-19T17:27:30.165Z,4.40
2023-01-19T17:29:57.712Z,5.00
2023-01-19T17:32:25.693Z,4.95
2023-01-19T17:34:53.489Z,5.35
2023-01-19T17:37:21.355Z,5.35
2023-01-19T17:39:49.995Z,6.03
2023-01-19T17:42:17.728Z,6.53
2023-01-19T17:44:45.729Z,6.62
2023-01-19T17:47:13.738Z,6.70
2023-01-19T17:49:41.550Z,6.20
2023-01-19T17:52:09.523Z,6.60
2023-01-19T17:54:37.700Z,6.43
2023-01-19T17:57:05.481Z,6.95
2023-01-19T17:59:33.369Z,5.82
2023-01-19T18:02:01.771Z,6.37
2023-01-19T18:04:32.095Z,6.20
2023-01-19T18:09:29.234Z,6.28
2023-01-19T18:11:57.296Z,7.28
2023-01-19T18:14:24.830Z,6.28
2023-01-19T18:16:53.034Z,7.10
2023-01-19T18:19:22.438Z,6.32
2023-01-19T18:21:51.021Z,7.15
2023-01-19T18:24:19.138Z,6.45
2023-01-19T18:26:47.028Z,6.05
2023-01-19T18:29:16.712Z,5.85
2023-01-19T18:31:45.139Z,6.25
2023-01-19T18:34:13.318Z,11.27
2023-01-19T18:36:40.944Z,6.45
2023-01-19T18:39:09.498Z,6.78
2023-01-19T18:41:43.502Z,5.68
2023-01-19T18:44:12.401Z,5.45
2023-01-19T18:46:40.610Z,7.20
2023-01-19T18:49:08.458Z,9.50
2023-01-19T18:51:39.597Z,6.47
2023-01-19T18:54:09.010Z,7.80
2023-01-19T18:56:37.184Z,6.82
2023-01-19T18:59:05.597Z,6.55
2023-01-19T19:01:35.153Z,8.13
2023-01-19T19:04:03.967Z,7.18
2023-01-19T19:06:31.732Z,10.00
2023-01-19T19:08:59.813Z,8.57
2023-01-19T19:11:28.307Z,9.82
2023-01-19T19:13:58.914Z,9.15
2023-01-19T19:16:27.794Z,8.95
2023-01-19T19:18:55.763Z,7.75
2023-01-19T19:21:25.547Z,8.93
2023-01-19T19:23:58.466Z,9.18
2023-01-19T19:26:28.220Z,8.88
2023-01-19T19:28:56.868Z,9.65
2023-01-19T19:31:26.183Z,9.63
2023-01-19T19:33:55.763Z,9.98
2023-01-19T19:36:25.063Z,9.30
2023-01-19T19:38:53.221Z,11.12
2023-01-19T19:41:24.006Z,10.43
2023-01-19T19:43:52.811Z,8.90
2023-01-19T19:46:24.239Z,8.75
2023-01-19T19:48:54.095Z,9.38
2023-01-19T19:51:27.186Z,8.40
2023-01-19T19:53:59.261Z,8.10
2023-01-19T19:56:29.778Z,9.10
2023-01-19T19:58:59.500Z,7.22
2023-01-19T20:01:32.616Z,7.80
2023-01-19T20:04:10.678Z,7.97
2023-01-19T20:06:41.072Z,8.20
2023-01-19T20:09:10.820Z,7.80
2023-01-19T20:11:39.460Z,7.30
2023-01-19T20:14:09.486Z,7.93
2023-01-19T20:16:38.454Z,8.27
2023-01-19T20:19:06.758Z,8.00
2023-01-19T20:21:37.264Z,7.72
2023-01-19T20:24:09.056Z,7.93
2023-01-19T20:29:11.669Z,6.97
2023-01-19T20:31:46.914Z,7.90
2023-01-19T20:34:17.813Z,8.23
2023-01-19T20:36:49.568Z,7.37
2023-01-19T20:39:19.223Z,8.60
2023-01-19T20:41:50.098Z,8.35
2023-01-19T20:44:22.419Z,8.63
2023-01-19T20:46:51.439Z,8.27
2023-01-19T20:49:20.090Z,8.32
2023-01-19T20:51:48.414Z,9.13
2023-01-19T20:54:18.282Z,8.82
2023-01-19T20:56:46.276Z,8.55
2023-01-19T20:59:14.260Z,8.15
2023-01-19T21:01:42.786Z,8.13
2023-01-19T21:04:12.202Z,8.30
2023-01-19T21:06:41.145Z,8.75
2023-01-19T21:09:10.929Z,8.73
2023-01-19T21:11:39.669Z,9.18
2023-01-19T21:14:07.681Z,9.32
2023-01-19T21:16:36.445Z,9.27
2023-01-19T21:19:05.147Z,8.73
2023-01-19T21:21:33.144Z,9.10
2023-01-19T21:24:02.417Z,10.23
2023-01-19T21:26:30.996Z,8.70
2023-01-19T21:28:59.759Z,9.52
2023-01-19T21:31:28.324Z,9.75
2023-01-19T21:33:57.913Z,9.63
2023-01-19T21:36:25.898Z,9.50
2023-01-19T21:38:55.711Z,9.77
2023-01-19T21:41:23.651Z,9.50
2023-01-19T21:43:51.257Z,9.75
2023-01-19T21:46:20.322Z,9.00
2023-01-19T21:48:48.816Z,9.38
2023-01-19T21:51:16.550Z,9.40
2023-01-19T21:53:46.219Z,9.13
2023-01-19T21:56:14.088Z,9.85
2023-01-19T21:58:42.212Z,9.82
2023-01-19T22:01:11.065Z,8.95
2023-01-19T22:03:39.915Z,8.95
2023-01-19T22:06:10.390Z,8.20
2023-01-19T22:08:38.420Z,8.63
2023-01-19T22:11:08.765Z,8.43
2023-01-19T22:13:38.692Z,9.25
2023-01-19T22:16:19.183Z,8.43
2023-01-19T22:18:51.704Z,8.57
2023-01-19T22:21:21.923Z,9.32
2023-01-19T22:23:55.231Z,10.50
2023-01-19T22:26:23.699Z,10.07
2023-01-19T22:28:55.923Z,10.88
2023-01-19T22:31:24.976Z,8.52
2023-01-19T22:33:52.982Z,8.27
2023-01-19T22:36:29.588Z,9.88
2023-01-19T22:38:59.882Z,9.25
2023-01-19T22:41:46.665Z,9.30
2023-01-19T22:44:22.875Z,8.88
2023-01-19T22:46:54.191Z,8.80
2023-01-19T22:49:22.277Z,7.75
2023-01-19T22:51:49.932Z,8.60
2023-01-19T22:54:17.511Z,7.62
2023-01-19T22:56:45.846Z,8.43
2023-01-19T22:59:13.547Z,9.15
2023-01-19T23:01:43.671Z,8.93
2023-01-19T23:04:13.564Z,8.88
2023-01-19T23:06:41.423Z,8.43
2023-01-19T23:09:13.856Z,7.78
2023-01-19T23:11:44.662Z,8.50
2023-01-19T23:14:14.872Z,8.70
2023-01-19T23:16:43.139Z,8.27
2023-01-19T23:19:12.344Z,7.45
2023-01-19T23:21:41.018Z,7.87
2023-01-19T23:24:09.320Z,8.95
2023-01-19T23:26:38.442Z,9.68
2023-01-19T23:29:10.129Z,10.13
2023-01-19T23:34:08.918Z,9.05
2023-01-19T23:36:39.124Z,10.55
2023-01-19T23:39:18.250Z,10.07
2023-01-19T23:41:47.084Z,9.60
2023-01-19T23:44:15.496Z,8.85
2023-01-19T23:46:43.990Z,9.60
2023-01-19T23:49:12.538Z,9.88
2023-01-19T23:51:40.967Z,10.82
2023-01-19T23:54:08.807Z,10.25
2023-01-19T23:56:37.561Z,9.70
2023-01-19T23:59:12.442Z,8.98
